Aviation Digital Data Service (ADDS)

Output produced by METARs form (1225 UTC 26 March 2019)
found at http://www.aviationweather.gov/metar/data/
 
TAF TDPD 261100Z 2612/2712 11010KT 9999 SCT018 
     PROB30 
     TEMPO 2706/2712 SHRA BKN015 SCT034